sensor_id;sensor_type;location;lat;lon;timestamp;temperature;humidity
10980;DHT22;5543;51.734;8.744;2023-06-26T00:01:08;20.40;99.90
10980;DHT22;5543;51.734;8.744;2023-06-26T00:03:37;20.40;99.90
10980;DHT22;5543;51.734;8.744;2023-06-26T00:06:05;20.40;99.90
10980;DHT22;5543;51.734;8.744;2023-06-26T00:08:33;20.40;99.90
10980;DHT22;5543;51.734;8.744;2023-06-26T00:11:01;20.30;99.90
10980;DHT22;5543;51.734;8.744;2023-06-26T00:13:30;20.30;99.90
10980;DHT22;5543;51.734;8.744;2023-06-26T00:15:58;20.30;99.90
10980;DHT22;5543;51.734;8.744;2023-06-26T00:18:29;20.30;99.90
10980;DHT22;5543;51.734;8.744;2023-06-26T00:20:59;20.30;99.90
10980;DHT22;5543;51.734;8.744;2023-06-26T00:23:27;20.20;99.90
10980;DHT22;5543;51.734;8.744;2023-06-26T00:25:57;20.20;99.90
10980;DHT22;5543;51.734;8.744;2023-06-26T00:28:25;20.20;99.90
10980;DHT22;5543;51.734;8.744;2023-06-26T00:30:53;20.20;99.90
10980;DHT22;5543;51.734;8.744;2023-06-26T00:33:21;20.20;99.90
10980;DHT22;5543;51.734;8.744;2023-06-26T00:35:49;20.30;99.90
10980;DHT22;5543;51.734;8.744;2023-06-26T00:38:18;20.40;99.90
10980;DHT22;5543;51.734;8.744;2023-06-26T00:40:46;20.40;99.90
10980;DHT22;5543;51.734;8.744;2023-06-26T00:43:14;20.30;99.90
10980;DHT22;5543;51.734;8.744;2023-06-26T00:45:42;20.30;99.90
10980;DHT22;5543;51.734;8.744;2023-06-26T00:48:11;20.30;99.90
10980;DHT22;5543;51.734;8.744;2023-06-26T00:50:40;20.20;99.90
10980;DHT22;5543;51.734;8.744;2023-06-26T00:53:09;20.10;99.90
10980;DHT22;5543;51.734;8.744;2023-06-26T00:55:39;20.10;99.90
10980;DHT22;5543;51.734;8.744;2023-06-26T00:58:07;20.10;99.90
10980;DHT22;5543;51.734;8.744;2023-06-26T01:00:36;20.10;99.90
10980;DHT22;5543;51.734;8.744;2023-06-26T01:03:04;20.10;99.90
10980;DHT22;5543;51.734;8.744;2023-06-26T01:05:32;20.20;99.90
10980;DHT22;5543;51.734;8.744;2023-06-26T01:08:01;20.30;99.90
10980;DHT22;5543;51.734;8.744;2023-06-26T01:10:31;20.40;99.90
10980;DHT22;5543;51.734;8.744;2023-06-26T01:13:00;20.40;99.90
10980;DHT22;5543;51.734;8.744;2023-06-26T01:15:28;20.50;99.90
10980;DHT22;5543;51.734;8.744;2023-06-26T01:17:57;20.50;99.90
10980;DHT22;5543;51.734;8.744;2023-06-26T01:20:31;20.60;99.90
10980;DHT22;5543;51.734;8.744;2023-06-26T01:23:05;20.70;99.90
10980;DHT22;5543;51.734;8.744;2023-06-26T01:25:39;20.60;99.90
10980;DHT22;5543;51.734;8.744;2023-06-26T01:28:12;20.60;99.90
10980;DHT22;5543;51.734;8.744;2023-06-26T01:30:43;20.60;99.90
10980;DHT22;5543;51.734;8.744;2023-06-26T01:33:11;20.60;99.90
10980;DHT22;5543;51.734;8.744;2023-06-26T01:35:40;20.50;99.90
10980;DHT22;5543;51.734;8.744;2023-06-26T01:38:12;20.40;99.90
10980;DHT22;5543;51.734;8.744;2023-06-26T01:40:40;20.40;99.90
10980;DHT22;5543;51.734;8.744;2023-06-26T01:43:19;20.20;99.90
10980;DHT22;5543;51.734;8.744;2023-06-26T01:45:54;20.10;99.90
10980;DHT22;5543;51.734;8.744;2023-06-26T01:48:30;20.00;99.90
10980;DHT22;5543;51.734;8.744;2023-06-26T01:51:01;19.90;99.90
10980;DHT22;5543;51.734;8.744;2023-06-26T01:53:35;19.80;99.90
10980;DHT22;5543;51.734;8.744;2023-06-26T01:56:07;19.80;99.90
10980;DHT22;5543;51.734;8.744;2023-06-26T01:58:40;19.80;99.90
10980;DHT22;5543;51.734;8.744;2023-06-26T02:01:11;19.80;99.90
10980;DHT22;5543;51.734;8.744;2023-06-26T02:03:39;19.70;99.90
10980;DHT22;5543;51.734;8.744;2023-06-26T02:06:07;19.70;99.90
10980;DHT22;5543;51.734;8.744;2023-06-26T02:08:36;19.70;99.90
10980;DHT22;5543;51.734;8.744;2023-06-26T02:11:04;19.60;99.90
10980;DHT22;5543;51.734;8.744;2023-06-26T02:13:32;19.50;99.90
10980;DHT22;5543;51.734;8.744;2023-06-26T02:16:01;19.40;99.90
10980;DHT22;5543;51.734;8.744;2023-06-26T02:18:29;19.20;99.90
10980;DHT22;5543;51.734;8.744;2023-06-26T02:20:57;19.10;99.90
10980;DHT22;5543;51.734;8.744;2023-06-26T02:23:25;19.00;99.90
10980;DHT22;5543;51.734;8.744;2023-06-26T02:25:53;18.90;99.90
10980;DHT22;5543;51.734;8.744;2023-06-26T02:28:21;19.00;99.90
10980;DHT22;5543;51.734;8.744;2023-06-26T02:30:49;18.80;99.90
10980;DHT22;5543;51.734;8.744;2023-06-26T02:33:19;18.70;99.90
10980;DHT22;5543;51.734;8.744;2023-06-26T02:35:47;18.80;99.90
10980;DHT22;5543;51.734;8.744;2023-06-26T02:38:16;18.70;99.90
10980;DHT22;5543;51.734;8.744;2023-06-26T02:40:44;18.70;99.90
10980;DHT22;5543;51.734;8.744;2023-06-26T02:43:12;18.50;99.90
10980;DHT22;5543;51.734;8.744;2023-06-26T02:45:40;18.70;99.90
10980;DHT22;5543;51.734;8.744;2023-06-26T02:48:08;18.50;99.90
10980;DHT22;5543;51.734;8.744;2023-06-26T02:50:38;18.60;99.90
10980;DHT22;5543;51.734;8.744;2023-06-26T02:53:06;18.60;99.90
10980;DHT22;5543;51.734;8.744;2023-06-26T02:55:34;18.60;99.90
10980;DHT22;5543;51.734;8.744;2023-06-26T02:58:02;18.50;99.90
10980;DHT22;5543;51.734;8.744;2023-06-26T03:00:31;18.60;99.90
10980;DHT22;5543;51.734;8.744;2023-06-26T03:03:00;18.50;99.90
10980;DHT22;5543;51.734;8.744;2023-06-26T03:05:28;18.50;99.90
10980;DHT22;5543;51.734;8.744;2023-06-26T03:07:57;18.50;99.90
10980;DHT22;5543;51.734;8.744;2023-06-26T03:10:25;18.50;99.90
10980;DHT22;5543;51.734;8.744;2023-06-26T03:12:53;18.50;99.90
10980;DHT22;5543;51.734;8.744;2023-06-26T03:15:21;18.50;99.90
10980;DHT22;5543;51.734;8.744;2023-06-26T03:17:49;18.50;99.90
10980;DHT22;5543;51.734;8.744;2023-06-26T03:20:17;18.40;99.90
10980;DHT22;5543;51.734;8.744;2023-06-26T03:22:45;18.40;99.90
10980;DHT22;5543;51.734;8.744;2023-06-26T03:25:14;18.50;99.90
10980;DHT22;5543;51.734;8.744;2023-06-26T03:27:43;18.30;99.90
10980;DHT22;5543;51.734;8.744;2023-06-26T03:30:12;18.20;99.90
10980;DHT22;5543;51.734;8.744;2023-06-26T03:32:40;18.20;99.90
10980;DHT22;5543;51.734;8.744;2023-06-26T03:35:08;18.20;99.90
10980;DHT22;5543;51.734;8.744;2023-06-26T03:37:36;18.10;99.90
10980;DHT22;5543;51.734;8.744;2023-06-26T03:40:04;18.00;99.90
10980;DHT22;5543;51.734;8.744;2023-06-26T03:42:34;18.00;99.90
10980;DHT22;5543;51.734;8.744;2023-06-26T03:45:02;18.00;99.90
10980;DHT22;5543;51.734;8.744;2023-06-26T03:47:31;18.00;99.90
10980;DHT22;5543;51.734;8.744;2023-06-26T03:49:59;18.00;99.90
10980;DHT22;5543;51.734;8.744;2023-06-26T03:52:27;18.00;99.90
10980;DHT22;5543;51.734;8.744;2023-06-26T03:54:57;18.00;99.90
10980;DHT22;5543;51.734;8.744;2023-06-26T03:57:25;18.00;99.90
10980;DHT22;5543;51.734;8.744;2023-06-26T03:59:55;18.00;99.90
10980;DHT22;5543;51.734;8.744;2023-06-26T04:02:23;18.00;99.90
10980;DHT22;5543;51.734;8.744;2023-06-26T04:04:51;18.00;99.90
10980;DHT22;5543;51.734;8.744;2023-06-26T04:07:19;18.00;99.90
10980;DHT22;5543;51.734;8.744;2023-06-26T04:09:47;18.00;99.90
10980;DHT22;5543;51.734;8.744;2023-06-26T04:12:15;18.00;99.90
10980;DHT22;5543;51.734;8.744;2023-06-26T04:14:43;18.00;99.90
10980;DHT22;5543;51.734;8.744;2023-06-26T04:17:12;18.10;99.90
10980;DHT22;5543;51.734;8.744;2023-06-26T04:19:40;18.10;99.90
10980;DHT22;5543;51.734;8.744;2023-06-26T04:22:08;18.10;99.90
10980;DHT22;5543;51.734;8.744;2023-06-26T04:24:36;18.20;99.90
10980;DHT22;5543;51.734;8.744;2023-06-26T04:27:05;18.30;99.90
10980;DHT22;5543;51.734;8.744;2023-06-26T04:29:33;18.30;99.90
10980;DHT22;5543;51.734;8.744;2023-06-26T04:32:01;18.40;99.90
10980;DHT22;5543;51.734;8.744;2023-06-26T04:34:31;18.50;99.90
10980;DHT22;5543;51.734;8.744;2023-06-26T04:37:02;18.70;99.90
10980;DHT22;5543;51.734;8.744;2023-06-26T04:39:31;18.80;99.90
10980;DHT22;5543;51.734;8.744;2023-06-26T04:41:59;18.90;99.90
10980;DHT22;5543;51.734;8.744;2023-06-26T04:44:27;19.00;99.90
10980;DHT22;5543;51.734;8.744;2023-06-26T04:46:55;19.10;99.90
10980;DHT22;5543;51.734;8.744;2023-06-26T04:49:23;19.20;99.90
10980;DHT22;5543;51.734;8.744;2023-06-26T04:51:53;19.20;99.90
10980;DHT22;5543;51.734;8.744;2023-06-26T04:54:21;19.20;99.90
10980;DHT22;5543;51.734;8.744;2023-06-26T04:56:49;19.30;99.90
10980;DHT22;5543;51.734;8.744;2023-06-26T04:59:17;19.30;99.90
10980;DHT22;5543;51.734;8.744;2023-06-26T05:01:45;19.30;99.90
10980;DHT22;5543;51.734;8.744;2023-06-26T05:04:15;19.30;99.90
10980;DHT22;5543;51.734;8.744;2023-06-26T05:06:43;19.30;99.90
10980;DHT22;5543;51.734;8.744;2023-06-26T05:09:13;19.30;99.90
10980;DHT22;5543;51.734;8.744;2023-06-26T05:11:41;19.30;99.90
10980;DHT22;5543;51.734;8.744;2023-06-26T05:14:09;19.40;99.90
10980;DHT22;5543;51.734;8.744;2023-06-26T05:16:37;19.40;99.90
10980;DHT22;5543;51.734;8.744;2023-06-26T05:19:05;19.40;99.90
10980;DHT22;5543;51.734;8.744;2023-06-26T05:21:34;19.50;99.90
10980;DHT22;5543;51.734;8.744;2023-06-26T05:24:03;19.60;99.90
10980;DHT22;5543;51.734;8.744;2023-06-26T05:26:33;19.70;99.90
10980;DHT22;5543;51.734;8.744;2023-06-26T05:29:01;19.70;99.90
10980;DHT22;5543;51.734;8.744;2023-06-26T05:31:31;19.80;99.90
10980;DHT22;5543;51.734;8.744;2023-06-26T05:34:03;19.90;99.90
10980;DHT22;5543;51.734;8.744;2023-06-26T05:36:34;20.00;99.90
10980;DHT22;5543;51.734;8.744;2023-06-26T05:39:02;20.00;99.90
10980;DHT22;5543;51.734;8.744;2023-06-26T05:41:32;20.10;99.90
10980;DHT22;5543;51.734;8.744;2023-06-26T05:44:00;20.20;99.90
10980;DHT22;5543;51.734;8.744;2023-06-26T05:46:29;20.30;99.90
10980;DHT22;5543;51.734;8.744;2023-06-26T05:48:57;20.40;99.90
10980;DHT22;5543;51.734;8.744;2023-06-26T05:51:25;20.50;99.90
10980;DHT22;5543;51.734;8.744;2023-06-26T05:53:54;20.60;99.90
10980;DHT22;5543;51.734;8.744;2023-06-26T05:56:22;20.70;99.90
10980;DHT22;5543;51.734;8.744;2023-06-26T05:58:52;20.80;99.90
10980;DHT22;5543;51.734;8.744;2023-06-26T06:01:21;20.90;99.90
10980;DHT22;5543;51.734;8.744;2023-06-26T06:03:49;21.00;99.90
10980;DHT22;5543;51.734;8.744;2023-06-26T06:06:17;21.00;99.90
10980;DHT22;5543;51.734;8.744;2023-06-26T06:08:45;21.10;99.90
10980;DHT22;5543;51.734;8.744;2023-06-26T06:11:15;21.20;99.90
10980;DHT22;5543;51.734;8.744;2023-06-26T06:13:43;21.30;99.90
10980;DHT22;5543;51.734;8.744;2023-06-26T06:16:12;21.40;99.90
10980;DHT22;5543;51.734;8.744;2023-06-26T06:18:40;21.50;99.90
10980;DHT22;5543;51.734;8.744;2023-06-26T06:21:08;21.60;99.90
10980;DHT22;5543;51.734;8.744;2023-06-26T06:23:36;21.80;99.90
10980;DHT22;5543;51.734;8.744;2023-06-26T06:26:05;21.90;99.90
10980;DHT22;5543;51.734;8.744;2023-06-26T06:28:33;22.00;99.90
10980;DHT22;5543;51.734;8.744;2023-06-26T06:31:01;22.00;99.90
10980;DHT22;5543;51.734;8.744;2023-06-26T06:33:31;22.10;99.90
10980;DHT22;5543;51.734;8.744;2023-06-26T06:35:59;22.20;99.90
10980;DHT22;5543;51.734;8.744;2023-06-26T06:38:27;22.30;99.90
10980;DHT22;5543;51.734;8.744;2023-06-26T06:40:54;22.40;99.90
10980;DHT22;5543;51.734;8.744;2023-06-26T06:43:23;22.50;99.90
10980;DHT22;5543;51.734;8.744;2023-06-26T06:45:51;22.60;99.90
10980;DHT22;5543;51.734;8.744;2023-06-26T06:48:19;22.60;99.90
10980;DHT22;5543;51.734;8.744;2023-06-26T06:50:48;22.70;99.90
10980;DHT22;5543;51.734;8.744;2023-06-26T06:53:18;22.80;99.90
10980;DHT22;5543;51.734;8.744;2023-06-26T06:55:47;22.80;99.90
10980;DHT22;5543;51.734;8.744;2023-06-26T06:58:15;22.90;99.90
10980;DHT22;5543;51.734;8.744;2023-06-26T07:00:45;23.00;99.90
10980;DHT22;5543;51.734;8.744;2023-06-26T07:03:14;23.00;99.90
10980;DHT22;5543;51.734;8.744;2023-06-26T07:05:42;23.00;99.90
10980;DHT22;5543;51.734;8.744;2023-06-26T07:08:12;23.10;99.90
10980;DHT22;5543;51.734;8.744;2023-06-26T07:10:40;23.20;99.90
10980;DHT22;5543;51.734;8.744;2023-06-26T07:13:08;23.20;99.90
10980;DHT22;5543;51.734;8.744;2023-06-26T07:15:36;23.30;99.90
10980;DHT22;5543;51.734;8.744;2023-06-26T07:18:04;23.30;99.90
10980;DHT22;5543;51.734;8.744;2023-06-26T07:20:32;23.40;99.90
10980;DHT22;5543;51.734;8.744;2023-06-26T07:23:00;23.50;99.90
10980;DHT22;5543;51.734;8.744;2023-06-26T07:25:30;23.50;99.90
10980;DHT22;5543;51.734;8.744;2023-06-26T07:27:58;23.60;99.90
10980;DHT22;5543;51.734;8.744;2023-06-26T07:30:26;23.60;99.90
10980;DHT22;5543;51.734;8.744;2023-06-26T07:32:54;23.70;99.90
10980;DHT22;5543;51.734;8.744;2023-06-26T07:35:22;23.80;99.90
10980;DHT22;5543;51.734;8.744;2023-06-26T07:37:51;23.80;99.90
10980;DHT22;5543;51.734;8.744;2023-06-26T07:40:21;23.90;99.90
10980;DHT22;5543;51.734;8.744;2023-06-26T07:42:50;23.90;99.90
10980;DHT22;5543;51.734;8.744;2023-06-26T07:45:20;23.90;99.90
10980;DHT22;5543;51.734;8.744;2023-06-26T07:47:51;24.00;99.90
10980;DHT22;5543;51.734;8.744;2023-06-26T07:50:20;24.00;99.90
10980;DHT22;5543;51.734;8.744;2023-06-26T07:52:50;24.10;99.90
10980;DHT22;5543;51.734;8.744;2023-06-26T07:55:19;24.20;99.90
10980;DHT22;5543;51.734;8.744;2023-06-26T07:57:49;24.40;99.90
10980;DHT22;5543;51.734;8.744;2023-06-26T08:00:19;24.60;99.90
10980;DHT22;5543;51.734;8.744;2023-06-26T08:02:47;24.70;99.90
10980;DHT22;5543;51.734;8.744;2023-06-26T08:05:15;24.80;99.90
10980;DHT22;5543;51.734;8.744;2023-06-26T08:07:44;25.00;99.90
10980;DHT22;5543;51.734;8.744;2023-06-26T08:10:12;25.00;99.90
10980;DHT22;5543;51.734;8.744;2023-06-26T08:12:40;25.20;99.90
10980;DHT22;5543;51.734;8.744;2023-06-26T08:15:11;25.10;99.90
10980;DHT22;5543;51.734;8.744;2023-06-26T08:17:39;25.00;99.90
10980;DHT22;5543;51.734;8.744;2023-06-26T08:20:08;24.90;99.90
10980;DHT22;5543;51.734;8.744;2023-06-26T08:22:37;24.80;99.90
10980;DHT22;5543;51.734;8.744;2023-06-26T08:25:06;24.60;99.90
10980;DHT22;5543;51.734;8.744;2023-06-26T08:27:34;24.50;99.90
10980;DHT22;5543;51.734;8.744;2023-06-26T08:30:02;24.30;99.90
10980;DHT22;5543;51.734;8.744;2023-06-26T08:32:33;24.30;99.90
10980;DHT22;5543;51.734;8.744;2023-06-26T08:35:01;24.30;99.90
10980;DHT22;5543;51.734;8.744;2023-06-26T08:37:29;24.20;99.90
10980;DHT22;5543;51.734;8.744;2023-06-26T08:39:59;24.00;99.90
10980;DHT22;5543;51.734;8.744;2023-06-26T08:42:28;23.90;99.90
10980;DHT22;5543;51.734;8.744;2023-06-26T08:44:56;23.70;99.90
10980;DHT22;5543;51.734;8.744;2023-06-26T08:47:30;23.50;99.90
10980;DHT22;5543;51.734;8.744;2023-06-26T08:50:07;23.60;99.90
10980;DHT22;5543;51.734;8.744;2023-06-26T08:52:37;23.60;99.90
10980;DHT22;5543;51.734;8.744;2023-06-26T08:55:10;23.90;99.90
10980;DHT22;5543;51.734;8.744;2023-06-26T08:57:38;24.80;99.90
10980;DHT22;5543;51.734;8.744;2023-06-26T09:00:08;25.80;99.90
10980;DHT22;5543;51.734;8.744;2023-06-26T09:02:38;27.00;99.90
10980;DHT22;5543;51.734;8.744;2023-06-26T09:05:12;27.60;99.90
10980;DHT22;5543;51.734;8.744;2023-06-26T09:07:40;27.70;99.90
10980;DHT22;5543;51.734;8.744;2023-06-26T09:10:09;27.40;98.50
10980;DHT22;5543;51.734;8.744;2023-06-26T09:12:37;26.80;99.40
10980;DHT22;5543;51.734;8.744;2023-06-26T09:15:06;26.50;99.00
10980;DHT22;5543;51.734;8.744;2023-06-26T09:17:39;26.30;99.90
10980;DHT22;5543;51.734;8.744;2023-06-26T09:20:09;25.90;99.90
10980;DHT22;5543;51.734;8.744;2023-06-26T09:22:41;25.40;99.90
10980;DHT22;5543;51.734;8.744;2023-06-26T09:25:10;24.90;99.90
10980;DHT22;5543;51.734;8.744;2023-06-26T09:27:39;24.30;99.90
10980;DHT22;5543;51.734;8.744;2023-06-26T09:30:09;24.20;99.90
10980;DHT22;5543;51.734;8.744;2023-06-26T09:32:37;24.00;99.90
10980;DHT22;5543;51.734;8.744;2023-06-26T09:35:06;24.00;99.90
10980;DHT22;5543;51.734;8.744;2023-06-26T09:37:34;24.00;99.90
10980;DHT22;5543;51.734;8.744;2023-06-26T09:40:05;24.00;99.90
10980;DHT22;5543;51.734;8.744;2023-06-26T09:42:35;24.00;99.90
10980;DHT22;5543;51.734;8.744;2023-06-26T09:45:03;24.70;99.90
10980;DHT22;5543;51.734;8.744;2023-06-26T09:47:34;25.20;99.90
10980;DHT22;5543;51.734;8.744;2023-06-26T09:50:03;25.80;99.90
10980;DHT22;5543;51.734;8.744;2023-06-26T09:52:35;26.30;99.90
10980;DHT22;5543;51.734;8.744;2023-06-26T09:55:12;26.90;99.90
10980;DHT22;5543;51.734;8.744;2023-06-26T09:57:40;27.50;99.30
10980;DHT22;5543;51.734;8.744;2023-06-26T10:00:14;27.50;99.10
10980;DHT22;5543;51.734;8.744;2023-06-26T10:02:43;27.60;98.40
10980;DHT22;5543;51.734;8.744;2023-06-26T10:05:12;27.10;98.50
10980;DHT22;5543;51.734;8.744;2023-06-26T10:07:40;26.60;99.80
10980;DHT22;5543;51.734;8.744;2023-06-26T10:10:11;26.60;99.90
10980;DHT22;5543;51.734;8.744;2023-06-26T10:12:40;26.40;99.90
10980;DHT22;5543;51.734;8.744;2023-06-26T10:15:11;26.00;99.90
10980;DHT22;5543;51.734;8.744;2023-06-26T10:17:43;25.80;99.90
10980;DHT22;5543;51.734;8.744;2023-06-26T10:20:14;25.70;99.90
10980;DHT22;5543;51.734;8.744;2023-06-26T10:22:46;25.40;99.90
10980;DHT22;5543;51.734;8.744;2023-06-26T10:25:19;25.00;99.90
10980;DHT22;5543;51.734;8.744;2023-06-26T10:27:50;24.70;99.90
10980;DHT22;5543;51.734;8.744;2023-06-26T10:30:22;24.60;99.90
10980;DHT22;5543;51.734;8.744;2023-06-26T10:32:53;24.50;99.90
10980;DHT22;5543;51.734;8.744;2023-06-26T10:35:24;24.40;99.90
10980;DHT22;5543;51.734;8.744;2023-06-26T10:38:00;24.30;99.90
10980;DHT22;5543;51.734;8.744;2023-06-26T10:40:43;24.30;99.90
10980;DHT22;5543;51.734;8.744;2023-06-26T10:43:18;24.50;99.90
10980;DHT22;5543;51.734;8.744;2023-06-26T10:46:03;24.60;99.90
10980;DHT22;5543;51.734;8.744;2023-06-26T10:48:31;25.30;99.90
10980;DHT22;5543;51.734;8.744;2023-06-26T10:51:13;25.40;99.90
10980;DHT22;5543;51.734;8.744;2023-06-26T10:53:41;25.40;99.90
10980;DHT22;5543;51.734;8.744;2023-06-26T10:56:13;25.20;99.90
10980;DHT22;5543;51.734;8.744;2023-06-26T10:58:42;25.10;99.90
10980;DHT22;5543;51.734;8.744;2023-06-26T11:01:42;24.80;99.90
10980;DHT22;5543;51.734;8.744;2023-06-26T11:04:11;24.60;99.90
10980;DHT22;5543;51.734;8.744;2023-06-26T11:06:45;24.50;99.90
10980;DHT22;5543;51.734;8.744;2023-06-26T11:09:15;24.60;99.90
10980;DHT22;5543;51.734;8.744;2023-06-26T11:12:00;24.60;99.90
10980;DHT22;5543;51.734;8.744;2023-06-26T11:14:35;24.50;99.90
10980;DHT22;5543;51.734;8.744;2023-06-26T11:17:04;24.60;99.90
10980;DHT22;5543;51.734;8.744;2023-06-26T11:19:33;24.60;99.90
10980;DHT22;5543;51.734;8.744;2023-06-26T11:22:05;24.70;99.90
10980;DHT22;5543;51.734;8.744;2023-06-26T11:24:33;24.70;99.90
10980;DHT22;5543;51.734;8.744;2023-06-26T11:27:04;24.80;99.90
10980;DHT22;5543;51.734;8.744;2023-06-26T11:29:33;25.70;99.90
10980;DHT22;5543;51.734;8.744;2023-06-26T11:32:04;26.70;99.90
10980;DHT22;5543;51.734;8.744;2023-06-26T11:34:34;26.80;98.80
10980;DHT22;5543;51.734;8.744;2023-06-26T11:37:04;26.60;96.70
10980;DHT22;5543;51.734;8.744;2023-06-26T11:39:33;27.20;96.40
10980;DHT22;5543;51.734;8.744;2023-06-26T11:42:02;28.20;96.90
10980;DHT22;5543;51.734;8.744;2023-06-26T11:44:32;29.20;96.20
10980;DHT22;5543;51.734;8.744;2023-06-26T11:47:00;29.80;94.90
10980;DHT22;5543;51.734;8.744;2023-06-26T11:49:29;29.40;93.80
10980;DHT22;5543;51.734;8.744;2023-06-26T11:51:57;28.80;92.70
10980;DHT22;5543;51.734;8.744;2023-06-26T11:54:26;28.30;93.60
10980;DHT22;5543;51.734;8.744;2023-06-26T11:56:55;28.90;93.90
10980;DHT22;5543;51.734;8.744;2023-06-26T11:59:31;28.90;93.90
10980;DHT22;5543;51.734;8.744;2023-06-26T12:02:04;29.00;94.60
10980;DHT22;5543;51.734;8.744;2023-06-26T12:04:34;28.80;94.90
10980;DHT22;5543;51.734;8.744;2023-06-26T12:07:05;28.90;94.70
10980;DHT22;5543;51.734;8.744;2023-06-26T12:09:38;28.60;95.00
10980;DHT22;5543;51.734;8.744;2023-06-26T12:12:08;28.00;95.10
10980;DHT22;5543;51.734;8.744;2023-06-26T12:14:37;27.90;94.80
10980;DHT22;5543;51.734;8.744;2023-06-26T12:17:11;27.60;94.80
10980;DHT22;5543;51.734;8.744;2023-06-26T12:19:44;27.10;93.90
10980;DHT22;5543;51.734;8.744;2023-06-26T12:22:14;27.00;94.60
10980;DHT22;5543;51.734;8.744;2023-06-26T12:24:43;27.50;94.70
10980;DHT22;5543;51.734;8.744;2023-06-26T12:27:13;28.10;93.60
10980;DHT22;5543;51.734;8.744;2023-06-26T12:29:49;28.50;91.90
10980;DHT22;5543;51.734;8.744;2023-06-26T12:32:19;28.90;94.10
10980;DHT22;5543;51.734;8.744;2023-06-26T12:34:49;29.10;93.30
10980;DHT22;5543;51.734;8.744;2023-06-26T12:37:18;29.00;93.00
10980;DHT22;5543;51.734;8.744;2023-06-26T12:39:48;28.90;92.80
10980;DHT22;5543;51.734;8.744;2023-06-26T12:42:17;28.90;91.50
10980;DHT22;5543;51.734;8.744;2023-06-26T12:44:46;28.80;91.50
10980;DHT22;5543;51.734;8.744;2023-06-26T12:47:16;29.00;90.60
10980;DHT22;5543;51.734;8.744;2023-06-26T12:49:49;29.30;88.70
10980;DHT22;5543;51.734;8.744;2023-06-26T12:52:18;29.30;87.80
10980;DHT22;5543;51.734;8.744;2023-06-26T12:54:51;29.50;87.50
10980;DHT22;5543;51.734;8.744;2023-06-26T12:57:20;29.60;84.90
10980;DHT22;5543;51.734;8.744;2023-06-26T12:59:48;29.70;83.10
10980;DHT22;5543;51.734;8.744;2023-06-26T13:02:16;30.00;81.70
10980;DHT22;5543;51.734;8.744;2023-06-26T13:04:46;29.80;79.10
10980;DHT22;5543;51.734;8.744;2023-06-26T13:07:15;29.60;81.70
10980;DHT22;5543;51.734;8.744;2023-06-26T13:09:43;29.20;82.10
10980;DHT22;5543;51.734;8.744;2023-06-26T13:12:12;28.50;83.70
10980;DHT22;5543;51.734;8.744;2023-06-26T13:14:40;28.10;86.00
10980;DHT22;5543;51.734;8.744;2023-06-26T13:17:08;27.70;85.50
10980;DHT22;5543;51.734;8.744;2023-06-26T13:19:36;27.40;83.60
10980;DHT22;5543;51.734;8.744;2023-06-26T13:22:06;27.10;88.80
10980;DHT22;5543;51.734;8.744;2023-06-26T13:24:35;26.80;88.30
10980;DHT22;5543;51.734;8.744;2023-06-26T13:27:03;26.50;89.50
10980;DHT22;5543;51.734;8.744;2023-06-26T13:29:31;26.10;86.80
10980;DHT22;5543;51.734;8.744;2023-06-26T13:32:00;25.80;88.60
10980;DHT22;5543;51.734;8.744;2023-06-26T13:34:28;25.50;89.80
10980;DHT22;5543;51.734;8.744;2023-06-26T13:36:57;25.30;90.60
10980;DHT22;5543;51.734;8.744;2023-06-26T13:39:28;25.50;90.10
10980;DHT22;5543;51.734;8.744;2023-06-26T13:41:56;25.80;90.60
10980;DHT22;5543;51.734;8.744;2023-06-26T13:44:25;26.20;90.60
10980;DHT22;5543;51.734;8.744;2023-06-26T13:47:13;26.70;90.80
10980;DHT22;5543;51.734;8.744;2023-06-26T13:49:41;26.90;90.00
10980;DHT22;5543;51.734;8.744;2023-06-26T13:52:09;27.20;90.80
10980;DHT22;5543;51.734;8.744;2023-06-26T13:54:39;27.80;90.40
10980;DHT22;5543;51.734;8.744;2023-06-26T13:57:08;28.30;89.60
10980;DHT22;5543;51.734;8.744;2023-06-26T13:59:37;28.30;87.60
10980;DHT22;5543;51.734;8.744;2023-06-26T14:02:07;27.90;84.90
10980;DHT22;5543;51.734;8.744;2023-06-26T14:04:36;27.00;87.70
10980;DHT22;5543;51.734;8.744;2023-06-26T14:07:05;26.40;89.50
10980;DHT22;5543;51.734;8.744;2023-06-26T14:09:34;25.70;90.10
10980;DHT22;5543;51.734;8.744;2023-06-26T14:12:04;25.40;90.80
10980;DHT22;5543;51.734;8.744;2023-06-26T14:14:33;25.00;91.50
10980;DHT22;5543;51.734;8.744;2023-06-26T14:17:01;24.80;90.60
10980;DHT22;5543;51.734;8.744;2023-06-26T14:19:30;24.90;90.90
10980;DHT22;5543;51.734;8.744;2023-06-26T14:21:58;25.30;91.00
10980;DHT22;5543;51.734;8.744;2023-06-26T14:24:26;25.50;89.70
10980;DHT22;5543;51.734;8.744;2023-06-26T14:26:54;26.00;89.90
10980;DHT22;5543;51.734;8.744;2023-06-26T14:29:23;26.50;90.00
10980;DHT22;5543;51.734;8.744;2023-06-26T14:31:51;27.00;90.00
10980;DHT22;5543;51.734;8.744;2023-06-26T14:34:22;27.40;90.30
10980;DHT22;5543;51.734;8.744;2023-06-26T14:36:50;27.70;87.20
10980;DHT22;5543;51.734;8.744;2023-06-26T14:39:18;27.60;84.70
10980;DHT22;5543;51.734;8.744;2023-06-26T14:41:47;27.40;84.30
10980;DHT22;5543;51.734;8.744;2023-06-26T14:44:16;27.40;83.10
10980;DHT22;5543;51.734;8.744;2023-06-26T14:46:45;27.10;82.50
10980;DHT22;5543;51.734;8.744;2023-06-26T14:49:14;26.80;84.60
10980;DHT22;5543;51.734;8.744;2023-06-26T14:51:42;27.00;84.10
10980;DHT22;5543;51.734;8.744;2023-06-26T14:54:10;27.10;78.20
10980;DHT22;5543;51.734;8.744;2023-06-26T14:56:38;27.20;77.20
10980;DHT22;5543;51.734;8.744;2023-06-26T14:59:06;27.00;77.20
10980;DHT22;5543;51.734;8.744;2023-06-26T15:01:34;26.60;79.60
10980;DHT22;5543;51.734;8.744;2023-06-26T15:04:04;26.60;83.00
10980;DHT22;5543;51.734;8.744;2023-06-26T15:06:32;26.60;82.40
10980;DHT22;5543;51.734;8.744;2023-06-26T15:09:01;26.70;78.20
10980;DHT22;5543;51.734;8.744;2023-06-26T15:11:29;26.80;80.10
10980;DHT22;5543;51.734;8.744;2023-06-26T15:13:57;26.70;77.90
10980;DHT22;5543;51.734;8.744;2023-06-26T15:16:25;26.60;77.20
10980;DHT22;5543;51.734;8.744;2023-06-26T15:18:53;26.60;78.60
10980;DHT22;5543;51.734;8.744;2023-06-26T15:21:23;26.00;79.40
10980;DHT22;5543;51.734;8.744;2023-06-26T15:23:51;25.70;79.40
10980;DHT22;5543;51.734;8.744;2023-06-26T15:26:19;25.30;78.20
10980;DHT22;5543;51.734;8.744;2023-06-26T15:28:47;25.00;79.60
10980;DHT22;5543;51.734;8.744;2023-06-26T15:31:17;24.80;78.80
10980;DHT22;5543;51.734;8.744;2023-06-26T15:33:45;24.60;77.80
10980;DHT22;5543;51.734;8.744;2023-06-26T15:36:13;24.60;78.20
10980;DHT22;5543;51.734;8.744;2023-06-26T15:38:43;24.70;76.90
10980;DHT22;5543;51.734;8.744;2023-06-26T15:41:11;24.80;78.60
10980;DHT22;5543;51.734;8.744;2023-06-26T15:46:27;25.10;79.00
10980;DHT22;5543;51.734;8.744;2023-06-26T15:48:55;25.30;78.10
10980;DHT22;5543;51.734;8.744;2023-06-26T15:51:23;25.50;80.30
10980;DHT22;5543;51.734;8.744;2023-06-26T15:53:53;25.70;81.60
10980;DHT22;5543;51.734;8.744;2023-06-26T15:56:21;25.80;80.70
10980;DHT22;5543;51.734;8.744;2023-06-26T15:58:49;25.80;78.80
10980;DHT22;5543;51.734;8.744;2023-06-26T16:01:17;25.70;81.80